Impacts TAF Board INFO
FOR SITUATIONAL AWARENESS. NOT TO BE USED FOR FLIGHT PLANNING PURPOSES.
IDs:

KPHX - Phoenix/Sky Harbor, AZ, US

Issued at 1122 UTC 14 Dec 2017
Updated at 1457 UTC 14 Dec 2017
Potential Impact None Slight Moderate High
Time<<15/03Z 15/04Z 15/05Z 15/06Z 15/07Z 15/08Z 15/09Z 15/10Z 15/11Z 15/12Z 15/13Z 15/14Z 15/15Z>>
Type PRVL PRVL PRVL PRVL PRVL PRVL PRVL PRVL PRVL PRVL PRVL PRVL PRVL
VIS >6 >6 >6 >6 >6 >6 >6 >6 >6 >6 >6 >6 >6
CIG -- -- -- -- -- -- -- -- -- -- -- -- --
Cover SKC SKC SKC SKC SKC SKC SKC SKC SKC SKC SKC SKC SKC
FltCat VFR VFR VFR VFR VFR VFR VFR VFR VFR VFR VFR VFR VFR
WX -- -- -- -- -- -- -- -- -- -- -- -- --
WDir 40 40 40 40 VRB VRB VRB VRB VRB VRB 80 80 80
WSpd 7 7 7 7 5 5 5 5 5 5 9 9 9
WGst -- -- -- -- -- -- -- -- -- -- -- -- --

Raw TAF
KPHX 141122Z 1412/1518 08007KT P6SM SCT250
  FM142000 02008G15KT P6SM SKC
  FM150300 04007KT P6SM SKC
  FM150700 VRB05KT P6SM SKC
  FM151300 08009KT P6SM SKC


METAR Board
Radar Display
Forecast Discussion

FOR SITUATIONAL AWARENESS. NOT TO BE USED FOR FLIGHT PLANNING PURPOSES.